Hauptseite
METAR-TAF:

METAR-TAF

Flughäfen :

Flughafen Burgos

Burgos, Spanien

Breite: 42-22N, Länge: 003-38W, Höhe: 894 m

Beobachtung

Neuester Wetterbericht von vor 14 Minuten, um 05:30 UTC
Wind 6 kt aus Nord/Nordost
Temperatur -1°C
Luftfeuchtigkeit 93%
Luftdruck 1025 hPa
Sichtweite 10 km oder mehr
Leicht bewölkt in der Höhe von 1900 ft
Aufgelockert bewölkt in der Höhe von 2800 ft

METAR: LEBG 120530Z AUTO 03006KT 9999 FEW019 SCT028 M01/M02 Q1025

Zeit: 07:44 (05:44 UTC)


TAF: fehlend

Wetterbeobachtungen und Prognosen von mehr als 4000 Flughäfen (METAR und TAF Bericht).

Die verfügbaren Stationen werden durch gelbe und rote Markierungen auf der Karte dargestellt.

Führen Sie die Maus auf sie, um den Namen der Station zu sehen.

Darauf klicken, um die Beobachtung von Wetterbeobachtungen und Prognosen zu sehen.

Um die Karte zu ändern : klicken Sie auf den grünen Tasten mit einem schwarzen Kreuz Zum Vergrößern, auf den grünen Button mit einem Gedankenstrich zu verkleinern, oder auf die grünen Pfeile für benachbarte Karten.


METAR-TAF: